Terminal Aerodrome Forecast
Issued by NWS

Home | Current Version | Previous Version | Text Only | Print | Product List | Glossary On
Versions: 1 2 3 4 5 6 7 8 9 10 11 12 13 14
000
FTUS43 KPAH 291120
TAFCGI
TAF
KCGI 291120Z 2912/3012 13007KT P6SM SCT250
     FM291500 18012G22KT P6SM SCT050 BKN250
     FM291900 19014G24KT P6SM SCT050 BKN100
     FM292300 20008KT P6SM VCSH SCT025 OVC050
     FM300300 27007KT P6SM BKN030
     FM300900 33005KT P6SM SCT035=

USA.gov is the U.S. government's official web portal to all federal, state and local government web resources and services.